Time;durP1;ratioP1;P1;durP2;ratioP2;P2;SDS_P1;SDS_P2;PMS_P1;PMS_P2;Temp;Humidity;BMP_temperature;BMP_pressure;BME280_temperature;BME280_humidity;BME280_pressure;Samples;Min_cycle;Max_cycle;Signal;HPM_P1;HPM_P2
2023/04/26 00:00:13;;;;;;;10.10;4.30;;;3.00;1.00;;;;;;5080143;28;20572;-65
2023/04/26 00:02:40;;;;;;;11.37;4.37;;;2.90;1.00;;;;;;5080097;28;20457;-65
2023/04/26 00:05:08;;;;;;;6.13;3.97;;;2.90;1.00;;;;;;5080159;28;20500;-65
2023/04/26 00:07:37;;;;;;;7.93;4.33;;;3.00;1.00;;;;;;5080386;28;20495;-65
2023/04/26 00:10:05;;;;;;;9.30;4.20;;;3.00;1.00;;;;;;5080243;28;20477;-65
2023/04/26 00:12:33;;;;;;;7.53;4.73;;;3.00;1.00;;;;;;5079540;28;20591;-65
2023/04/26 00:15:01;;;;;;;7.50;4.77;;;3.00;1.00;;;;;;5079871;28;20560;-65
2023/04/26 00:17:28;;;;;;;7.43;4.70;;;3.10;1.00;;;;;;5079976;28;20547;-65
2023/04/26 00:19:56;;;;;;;6.80;4.50;;;3.10;1.00;;;;;;5079875;28;20466;-65
2023/04/26 00:22:23;;;;;;;6.77;4.93;;;3.00;1.00;;;;;;5079691;28;20469;-65
2023/04/26 00:24:51;;;;;;;10.10;4.80;;;3.00;1.00;;;;;;5079719;28;20770;-65
2023/04/26 00:27:18;;;;;;;7.83;5.03;;;2.90;1.00;;;;;;5079581;28;20489;-65
2023/04/26 00:29:47;;;;;;;7.80;4.67;;;2.80;1.00;;;;;;5079636;28;20465;-65
2023/04/26 00:32:14;;;;;;;7.73;5.00;;;2.70;1.00;;;;;;5079783;28;20581;-65
2023/04/26 00:34:41;;;;;;;13.10;4.57;;;2.60;1.00;;;;;;5079089;28;20465;-65
2023/04/26 00:37:08;;;;;;;7.00;4.97;;;2.60;1.00;;;;;;5079429;28;20531;-65
2023/04/26 00:39:35;;;;;;;8.40;3.90;;;2.50;1.00;;;;;;5079601;28;20460;-65
2023/04/26 00:42:03;;;;;;;9.13;5.13;;;2.40;1.00;;;;;;5080026;28;20497;-64
2023/04/26 00:44:30;;;;;;;12.80;6.60;;;2.40;1.00;;;;;;5079846;28;20878;-65
2023/04/26 00:46:59;;;;;;;8.00;5.97;;;2.40;1.00;;;;;;5079774;28;20841;-65
2023/04/26 00:49:26;;;;;;;8.40;4.50;;;2.40;1.00;;;;;;5079821;28;20471;-65
2023/04/26 00:51:54;;;;;;;7.80;4.40;;;2.40;1.00;;;;;;5079433;28;20461;-65
2023/04/26 00:54:22;;;;;;;11.37;4.00;;;2.30;1.00;;;;;;5078979;28;20959;-65
2023/04/26 00:56:51;;;;;;;6.97;3.83;;;2.20;1.00;;;;;;5079166;28;20469;-65
2023/04/26 00:59:20;;;;;;;6.80;4.57;;;2.20;1.00;;;;;;5079564;28;20469;-65
2023/04/26 01:01:48;;;;;;;11.77;5.67;;;2.10;1.00;;;;;;5078506;28;20467;-65
2023/04/26 01:04:17;;;;;;;7.17;4.57;;;2.10;1.00;;;;;;5079255;28;20481;-65
2023/04/26 01:06:45;;;;;;;8.77;5.27;;;2.10;1.00;;;;;;5078694;28;20461;-65
2023/04/26 01:09:14;;;;;;;10.03;5.00;;;2.00;1.00;;;;;;5079263;28;20768;-65
2023/04/26 01:11:42;;;;;;;11.60;4.60;;;2.00;1.00;;;;;;5079002;28;20476;-65
2023/04/26 01:14:11;;;;;;;9.27;5.00;;;2.00;1.00;;;;;;5078932;28;20558;-65
2023/04/26 01:16:39;;;;;;;8.20;4.27;;;2.00;1.00;;;;;;5079064;28;20469;-65
2023/04/26 01:19:11;;;;;;;4.90;3.80;;;1.90;1.00;;;;;;5078777;28;20461;-65
2023/04/26 01:21:40;;;;;;;11.63;4.80;;;1.90;1.00;;;;;;5079062;28;20465;-65
2023/04/26 01:24:10;;;;;;;5.10;3.70;;;1.90;1.00;;;;;;5079164;28;20481;-65
2023/04/26 01:26:44;;;;;;;7.90;4.07;;;1.90;1.00;;;;;;5078763;28;20751;-65
2023/04/26 01:29:15;;;;;;;7.77;4.50;;;1.90;1.00;;;;;;5078245;28;20497;-65
2023/04/26 01:31:43;;;;;;;8.97;4.93;;;1.80;1.00;;;;;;5078942;28;20556;-65
2023/04/26 01:34:10;;;;;;;10.50;4.70;;;1.80;1.00;;;;;;5078645;28;20577;-65
2023/04/26 01:36:37;;;;;;;6.60;4.47;;;1.70;1.00;;;;;;5078101;28;20465;-65
2023/04/26 01:39:05;;;;;;;12.60;4.73;;;1.60;1.00;;;;;;5078642;28;20469;-65
2023/04/26 01:41:33;;;;;;;8.60;4.67;;;1.60;1.00;;;;;;5077825;28;20552;-65
2023/04/26 01:44:01;;;;;;;6.70;3.70;;;1.60;1.00;;;;;;5078320;28;20784;-65
2023/04/26 01:46:28;;;;;;;5.43;4.23;;;1.60;1.00;;;;;;5077742;28;20465;-65
2023/04/26 01:48:56;;;;;;;8.77;4.50;;;1.60;1.00;;;;;;5078527;28;20783;-65
2023/04/26 01:51:23;;;;;;;7.00;4.10;;;1.50;1.00;;;;;;5078166;28;20559;-65
2023/04/26 01:53:50;;;;;;;7.47;4.80;;;1.40;1.00;;;;;;5078511;28;20478;-66
2023/04/26 01:56:18;;;;;;;5.23;4.60;;;1.40;1.00;;;;;;5077995;28;20548;-65
2023/04/26 01:58:46;;;;;;;7.00;4.80;;;1.40;1.00;;;;;;5077995;28;20754;-65
2023/04/26 02:01:14;;;;;;;8.20;4.77;;;1.40;1.00;;;;;;5077793;28;20457;-65
2023/04/26 02:03:41;;;;;;;6.67;4.20;;;1.30;1.00;;;;;;5078138;28;20499;-65
2023/04/26 02:06:08;;;;;;;7.03;5.00;;;1.30;1.00;;;;;;5078169;28;20871;-65
2023/04/26 02:08:35;;;;;;;5.37;3.77;;;1.30;1.00;;;;;;5077761;28;20809;-64
2023/04/26 02:11:03;;;;;;;13.90;4.73;;;1.30;1.00;;;;;;5077845;28;20733;-65
2023/04/26 02:13:30;;;;;;;6.77;4.70;;;1.20;1.00;;;;;;5077877;28;20514;-65
2023/04/26 02:15:59;;;;;;;7.27;4.87;;;1.20;1.00;;;;;;5077748;28;20489;-65
2023/04/26 02:18:28;;;;;;;12.00;5.10;;;1.20;1.00;;;;;;5077936;28;20923;-65
2023/04/26 02:20:56;;;;;;;8.10;4.17;;;1.00;1.00;;;;;;5077668;28;20471;-64
2023/04/26 02:23:23;;;;;;;13.00;4.53;;;0.90;1.00;;;;;;5077520;28;20584;-64
2023/04/26 02:25:51;;;;;;;7.43;4.20;;;1.00;1.00;;;;;;5077909;28;20465;-64
2023/04/26 02:28:18;;;;;;;8.33;4.53;;;0.90;1.00;;;;;;5077121;28;20542;-64
2023/04/26 02:30:45;;;;;;;7.50;4.43;;;1.00;1.00;;;;;;5077241;28;20563;-64
2023/04/26 02:33:14;;;;;;;11.17;4.10;;;1.00;1.00;;;;;;5077626;28;20465;-64
2023/04/26 02:35:41;;;;;;;8.53;4.90;;;0.90;1.00;;;;;;5077658;28;20500;-64
2023/04/26 02:38:08;;;;;;;7.30;4.23;;;1.00;1.00;;;;;;5077593;28;20824;-64
2023/04/26 02:40:35;;;;;;;9.50;4.33;;;0.90;1.00;;;;;;5077694;28;20472;-64
2023/04/26 02:43:03;;;;;;;6.73;4.70;;;0.80;1.00;;;;;;5077183;28;20489;-64
2023/04/26 02:45:30;;;;;;;9.63;4.80;;;0.80;1.00;;;;;;5077850;28;20464;-64
2023/04/26 02:47:57;;;;;;;7.67;5.10;;;0.80;1.00;;;;;;5077390;28;20465;-64
2023/04/26 02:50:26;;;;;;;9.57;4.63;;;0.70;1.00;;;;;;5076984;28;20467;-64
2023/04/26 02:52:53;;;;;;;8.47;4.70;;;0.70;1.00;;;;;;5077035;28;20492;-64
2023/04/26 02:55:20;;;;;;;7.33;5.10;;;0.70;1.00;;;;;;5077207;28;20564;-64
2023/04/26 02:57:48;;;;;;;9.30;5.00;;;0.70;1.00;;;;;;5077313;28;20467;-64
2023/04/26 03:00:15;;;;;;;6.73;4.10;;;0.60;1.00;;;;;;5077231;28;21325;-64
2023/04/26 03:02:42;;;;;;;7.20;4.13;;;0.60;1.00;;;;;;5077007;28;20465;-64
2023/04/26 03:05:10;;;;;;;6.30;4.47;;;0.60;1.00;;;;;;5077371;28;20569;-64
2023/04/26 03:07:38;;;;;;;9.50;4.77;;;0.60;1.00;;;;;;5077634;28;20476;-64
2023/04/26 03:10:07;;;;;;;9.47;5.90;;;0.60;1.00;;;;;;5077856;28;20503;-64
2023/04/26 03:12:34;;;;;;;8.23;5.37;;;0.50;1.00;;;;;;5077174;28;20465;-64
2023/04/26 03:15:02;;;;;;;26.37;13.90;;;0.40;1.00;;;;;;5077926;28;20882;-63
2023/04/26 03:17:30;;;;;;;20.47;11.30;;;0.40;1.00;;;;;;5078147;28;20487;-64
2023/04/26 03:19:57;;;;;;;27.43;12.03;;;0.40;1.00;;;;;;5077735;28;20793;-64
2023/04/26 03:22:24;;;;;;;13.93;8.37;;;0.40;1.00;;;;;;5077330;28;20461;-63
2023/04/26 03:24:53;;;;;;;15.63;6.23;;;0.30;1.00;;;;;;5077835;28;20541;-64
2023/04/26 03:27:20;;;;;;;9.70;6.80;;;0.30;1.00;;;;;;5081239;28;20594;-64
2023/04/26 03:29:47;;;;;;;12.40;6.63;;;0.30;1.00;;;;;;5081569;28;20459;-64
2023/04/26 03:32:15;;;;;;;12.37;7.03;;;0.30;1.00;;;;;;5081502;28;20479;-64
2023/04/26 03:34:42;;;;;;;15.60;6.53;;;0.30;1.00;;;;;;5080848;28;20465;-64
2023/04/26 03:37:09;;;;;;;14.10;7.10;;;0.30;1.00;;;;;;5081417;28;20547;-64
2023/04/26 03:39:36;;;;;;;9.97;6.67;;;0.20;1.00;;;;;;5081224;28;20561;-64
2023/04/26 03:42:05;;;;;;;9.03;5.50;;;0.20;1.00;;;;;;5081060;28;20467;-64
2023/04/26 03:44:32;;;;;;;9.50;5.67;;;0.20;1.00;;;;;;5080770;28;20532;-64
2023/04/26 03:46:59;;;;;;;6.70;4.90;;;0.20;1.00;;;;;;5080961;28;20481;-64
2023/04/26 03:49:27;;;;;;;11.03;6.13;;;0.20;1.00;;;;;;5080338;28;20559;-64
2023/04/26 03:51:54;;;;;;;13.93;5.67;;;0.20;29.50;;;;;;5080717;28;20873;-64
2023/04/26 03:54:22;;;;;;;8.57;5.63;;;0.20;13.20;;;;;;5080293;28;20465;-64
2023/04/26 03:56:49;;;;;;;9.43;5.83;;;0.10;1.00;;;;;;5080122;28;20888;-64
2023/04/26 03:59:17;;;;;;;12.87;5.97;;;0.10;4.60;;;;;;5080259;28;20468;-64
2023/04/26 04:01:45;;;;;;;9.17;5.23;;;0.00;38.00;;;;;;5080621;28;20813;-64
2023/04/26 04:04:12;;;;;;;9.50;5.00;;;0.10;99.90;;;;;;5080600;28;20595;-64
2023/04/26 04:06:39;;;;;;;9.00;5.07;;;0.10;99.90;;;;;;5080389;28;20465;-64
2023/04/26 04:09:06;;;;;;;7.83;4.93;;;0.10;99.90;;;;;;5080597;28;20550;-64
2023/04/26 04:11:34;;;;;;;11.77;5.50;;;0.00;56.20;;;;;;5080714;28;20484;-64
2023/04/26 04:14:01;;;;;;;10.70;6.10;;;0.00;53.80;;;;;;5080806;28;20760;-63
2023/04/26 04:16:30;;;;;;;14.10;5.60;;;0.00;99.90;;;;;;5080289;28;20461;-64
2023/04/26 04:18:57;;;;;;;9.00;5.23;;;0.00;99.90;;;;;;5080328;28;20525;-64
2023/04/26 04:21:26;;;;;;;7.60;4.93;;;0.10;99.90;;;;;;5080361;28;20744;-64
2023/04/26 04:23:54;;;;;;;9.90;6.30;;;0.00;99.90;;;;;;5080235;28;20491;-63
2023/04/26 04:26:21;;;;;;;7.97;5.17;;;0.00;99.90;;;;;;5079914;28;20465;-63
2023/04/26 04:28:48;;;;;;;11.07;6.93;;;0.00;99.90;;;;;;5079197;28;20487;-63
2023/04/26 04:31:16;;;;;;;11.10;6.37;;;0.00;99.90;;;;;;5079404;28;20940;-64
2023/04/26 04:33:44;;;;;;;11.03;6.63;;;0.10;99.90;;;;;;5078732;28;20461;-64
2023/04/26 04:36:12;;;;;;;10.20;6.40;;;0.20;99.90;;;;;;5079232;28;20554;-64
2023/04/26 04:38:39;;;;;;;9.03;6.00;;;0.10;99.90;;;;;;5078295;28;20465;-64
2023/04/26 04:41:07;;;;;;;10.00;6.03;;;0.00;99.90;;;;;;5078537;28;20472;-64
2023/04/26 04:43:34;;;;;;;15.23;5.90;;;0.10;99.90;;;;;;5079644;28;20491;-64
2023/04/26 04:46:02;;;;;;;10.57;6.03;;;0.10;99.90;;;;;;5079530;28;20905;-64
2023/04/26 04:48:29;;;;;;;7.97;5.57;;;0.10;99.90;;;;;;5079323;28;20460;-64
2023/04/26 04:50:58;;;;;;;12.53;6.10;;;0.20;99.90;;;;;;5078603;28;20587;-64
2023/04/26 04:53:25;;;;;;;10.10;6.80;;;0.20;99.90;;;;;;5077599;28;20472;-64
2023/04/26 04:55:53;;;;;;;10.17;6.40;;;0.20;99.90;;;;;;5077581;28;20565;-64
2023/04/26 04:58:21;;;;;;;9.67;7.00;;;0.30;99.90;;;;;;5077501;28;20806;-64
2023/04/26 05:00:49;;;;;;;9.77;6.80;;;0.30;99.90;;;;;;5076966;28;20464;-64
2023/04/26 05:03:17;;;;;;;13.37;7.70;;;0.30;99.90;;;;;;5075684;28;20431;-64
2023/04/26 05:05:44;;;;;;;9.40;6.50;;;0.40;99.90;;;;;;5076259;28;20510;-64
2023/04/26 05:08:13;;;;;;;9.57;6.07;;;0.40;99.90;;;;;;5079061;28;20464;-64
2023/04/26 05:10:40;;;;;;;16.03;7.57;;;0.50;99.90;;;;;;5078534;28;20471;-64
2023/04/26 05:13:08;;;;;;;11.77;8.57;;;0.60;99.90;;;;;;5078038;28;20825;-65
2023/04/26 05:15:35;;;;;;;9.90;6.93;;;0.70;99.90;;;;;;5078181;28;20453;-65
2023/04/26 05:18:02;;;;;;;12.53;7.63;;;0.80;99.90;;;;;;5077437;28;20495;-65
2023/04/26 05:20:33;;;;;;;9.83;7.10;;;0.90;99.90;;;;;;5076851;28;20550;-65
2023/04/26 05:23:00;;;;;;;12.90;8.00;;;1.20;99.90;;;;;;5075872;28;20887;-65
2023/04/26 05:25:29;;;;;;;10.40;8.33;;;1.20;99.90;;;;;;5078807;28;20519;-65
2023/04/26 05:27:56;;;;;;;16.93;7.60;;;1.20;99.90;;;;;;5078533;28;20992;-65
2023/04/26 05:30:26;;;;;;;12.00;7.30;;;1.20;91.90;;;;;;5077929;28;20548;-65
2023/04/26 05:32:55;;;;;;;9.90;7.30;;;1.30;82.40;;;;;;5077266;28;20933;-66
2023/04/26 05:35:23;;;;;;;21.60;8.63;;;1.30;69.30;;;;;;5077940;28;20453;-63
2023/04/26 05:37:50;;;;;;;17.70;8.67;;;1.40;67.00;;;;;;5078481;28;20512;-64
2023/04/26 05:40:18;;;;;;;15.63;9.00;;;1.50;60.90;;;;;;5077209;28;20484;-63
2023/04/26 05:42:46;;;;;;;12.03;7.80;;;1.60;24.00;;;;;;5075663;28;20738;-63
2023/04/26 05:45:14;;;;;;;12.07;8.30;;;1.70;1.00;;;;;;5075455;28;20582;-64
2023/04/26 05:47:41;;;;;;;11.90;8.23;;;1.70;1.00;;;;;;5075054;28;20461;-64
2023/04/26 05:50:09;;;;;;;12.40;8.40;;;1.80;1.00;;;;;;5074826;28;20466;-64
2023/04/26 05:52:37;;;;;;;15.43;9.17;;;1.90;1.00;;;;;;5076019;28;20468;-64
2023/04/26 05:55:05;;;;;;;14.90;8.60;;;2.00;1.00;;;;;;5076496;28;20504;-64
2023/04/26 05:57:33;;;;;;;11.10;8.80;;;2.10;1.00;;;;;;5076727;28;20465;-64
2023/04/26 06:00:03;;;;;;;17.93;9.23;;;2.30;1.00;;;;;;5077510;28;20472;-64
2023/04/26 06:02:31;;;;;;;13.53;8.30;;;2.40;1.00;;;;;;5076836;28;20552;-64
2023/04/26 06:04:58;;;;;;;18.93;9.03;;;2.60;1.00;;;;;;5076332;28;20489;-63
2023/04/26 06:07:25;;;;;;;15.60;9.30;;;2.80;1.00;;;;;;5076073;28;20560;-64
2023/04/26 06:09:52;;;;;;;18.53;9.70;;;3.10;1.00;;;;;;5076068;28;20944;-65
2023/04/26 06:12:20;;;;;;;12.83;9.00;;;3.30;1.00;;;;;;5076433;28;20488;-65
2023/04/26 06:14:47;;;;;;;12.53;9.10;;;3.60;1.00;;;;;;5076019;28;20772;-66
2023/04/26 06:17:16;;;;;;;18.17;9.70;;;3.90;1.00;;;;;;5076942;28;20544;-67
2023/04/26 06:19:43;;;;;;;15.77;7.67;;;4.30;1.00;;;;;;5077730;28;20549;-64
2023/04/26 06:22:10;;;;;;;15.53;9.93;;;4.50;1.00;;;;;;5077095;28;20508;-64
2023/04/26 06:24:37;;;;;;;13.27;10.20;;;5.00;1.00;;;;;;5077276;28;20493;-64
2023/04/26 06:27:04;;;;;;;19.37;9.73;;;5.20;1.00;;;;;;5077566;28;20498;-65
2023/04/26 06:29:33;;;;;;;13.10;10.03;;;5.60;1.00;;;;;;5077352;28;20814;-66
2023/04/26 06:32:01;;;;;;;15.83;9.67;;;6.00;99.90;;;;;;5077126;28;20535;-65
2023/04/26 06:34:29;;;;;;;14.80;9.40;;;6.50;99.90;;;;;;5077138;28;20462;-65
2023/04/26 06:36:57;;;;;;;14.33;9.27;;;6.70;99.90;;;;;;5077536;28;20465;-66
2023/04/26 06:39:24;;;;;;;17.67;9.83;;;6.90;99.90;;;;;;5075840;28;20891;-66
2023/04/26 06:41:52;;;;;;;15.60;9.03;;;7.00;99.90;;;;;;5075284;28;20560;-66
2023/04/26 06:44:19;;;;;;;15.73;9.40;;;7.10;99.90;;;;;;5075539;28;20543;-65
2023/04/26 06:46:46;;;;;;;15.50;10.00;;;7.30;99.90;;;;;;5075458;28;20551;-65
2023/04/26 06:49:13;;;;;;;16.93;8.47;;;7.60;99.90;;;;;;5075713;28;20461;-65
2023/04/26 06:51:42;;;;;;;14.60;8.80;;;8.20;99.90;;;;;;5073197;28;20535;-65
2023/04/26 06:54:10;;;;;;;17.00;9.93;;;8.20;99.90;;;;;;5075248;28;20472;-65
2023/04/26 06:56:37;;;;;;;12.93;9.00;;;8.20;99.90;;;;;;5074441;28;20515;-65
2023/04/26 06:59:06;;;;;;;14.67;9.80;;;8.30;99.90;;;;;;5074880;28;20466;-64
2023/04/26 07:01:34;;;;;;;12.90;8.43;;;8.40;99.90;;;;;;5072694;28;20555;-64
2023/04/26 07:04:03;;;;;;;12.83;9.47;;;8.50;99.90;;;;;;5073860;28;20442;-63
2023/04/26 07:06:30;;;;;;;16.10;8.87;;;8.60;99.90;;;;;;5074146;28;20523;-64
2023/04/26 07:09:01;;;;;;;11.20;8.00;;;8.80;99.90;;;;;;5073826;28;20461;-64
2023/04/26 07:11:28;;;;;;;12.50;6.90;;;8.50;99.90;;;;;;5074066;28;20492;-64
2023/04/26 07:13:56;;;;;;;16.83;8.30;;;8.30;99.90;;;;;;5075175;28;20548;-64
2023/04/26 07:16:23;;;;;;;12.37;7.63;;;8.50;99.90;;;;;;5075313;28;20504;-64
2023/04/26 07:18:51;;;;;;;11.50;6.40;;;8.80;99.90;;;;;;5075127;28;20461;-64
2023/04/26 07:21:19;;;;;;;11.33;7.00;;;9.30;99.90;;;;;;5074887;28;20508;-65
2023/04/26 07:23:46;;;;;;;9.57;7.57;;;9.40;99.90;;;;;;5073654;28;20938;-65
2023/04/26 07:26:14;;;;;;;13.40;7.13;;;9.40;99.90;;;;;;5073736;28;20500;-65
2023/04/26 07:28:41;;;;;;;10.90;5.90;;;10.20;99.90;;;;;;5073212;28;20488;-65
2023/04/26 07:31:09;;;;;;;8.63;4.27;;;9.90;99.90;;;;;;5072895;28;20536;-65
2023/04/26 07:33:36;;;;;;;11.80;3.77;;;10.10;99.90;;;;;;5073829;28;20942;-65
2023/04/26 07:36:04;;;;;;;10.33;3.93;;;10.10;99.90;;;;;;5073195;28;20766;-65
2023/04/26 07:38:31;;;;;;;7.20;4.20;;;9.80;99.90;;;;;;5073894;28;20527;-65
2023/04/26 07:41:00;;;;;;;9.00;3.90;;;9.10;99.90;;;;;;5074445;28;20548;-65
2023/04/26 07:43:30;;;;;;;5.40;3.40;;;8.70;99.90;;;;;;5073919;28;20469;-65
2023/04/26 07:46:00;;;;;;;5.17;4.20;;;8.50;99.90;;;;;;5075582;28;20467;-65
2023/04/26 07:48:28;;;;;;;7.93;4.63;;;8.60;99.90;;;;;;5076389;28;20457;-64
2023/04/26 07:50:55;;;;;;;8.33;3.83;;;9.20;99.90;;;;;;5076625;28;20457;-64
2023/04/26 07:53:23;;;;;;;6.17;3.50;;;9.40;99.90;;;;;;5075179;28;20468;-65
2023/04/26 07:55:51;;;;;;;5.07;3.27;;;10.10;99.90;;;;;;5076431;28;20838;-65
2023/04/26 07:58:18;;;;;;;9.70;3.40;;;10.60;99.90;;;;;;5075304;28;20519;-64
2023/04/26 08:00:47;;;;;;;4.97;3.53;;;10.70;99.90;;;;;;5075910;28;20483;-64
2023/04/26 08:03:16;;;;;;;10.60;3.77;;;10.70;99.90;;;;;;5074589;28;20461;-64
2023/04/26 08:05:44;;;;;;;12.73;3.57;;;10.90;99.90;;;;;;5074635;28;20996;-64
2023/04/26 08:08:11;;;;;;;6.90;3.33;;;10.90;99.90;;;;;;5074247;28;20465;-64
2023/04/26 08:10:41;;;;;;;5.23;3.63;;;11.00;99.90;;;;;;5074857;28;20634;-65
2023/04/26 08:13:08;;;;;;;7.30;3.63;;;11.10;99.90;;;;;;5078301;28;20471;-65
2023/04/26 08:15:36;;;;;;;7.90;4.20;;;11.30;99.90;;;;;;5077954;28;20560;-64
2023/04/26 08:18:04;;;;;;;6.53;4.07;;;11.20;99.90;;;;;;5078476;28;20461;-64
2023/04/26 08:20:32;;;;;;;9.77;4.30;;;11.60;99.90;;;;;;5071884;28;20766;-64
2023/04/26 08:23:00;;;;;;;6.70;4.47;;;12.00;99.90;;;;;;5078049;28;20461;-64
2023/04/26 08:25:27;;;;;;;10.40;5.20;;;11.70;99.90;;;;;;5078140;28;20550;-64
2023/04/26 08:27:54;;;;;;;7.97;4.27;;;11.90;99.90;;;;;;5078066;28;20905;-64
2023/04/26 08:30:22;;;;;;;8.13;4.03;;;11.90;99.90;;;;;;5077731;28;20473;-65
2023/04/26 08:32:49;;;;;;;5.40;4.13;;;11.20;99.90;;;;;;5078125;28;20457;-64
2023/04/26 08:35:18;;;;;;;8.33;4.23;;;10.70;99.90;;;;;;5077974;28;20490;-64
2023/04/26 08:37:45;;;;;;;9.83;3.90;;;10.10;99.90;;;;;;5079276;28;20468;-64
2023/04/26 08:40:12;;;;;;;5.50;3.90;;;9.20;99.90;;;;;;5077894;28;20985;-63
2023/04/26 08:42:41;;;;;;;7.27;3.97;;;9.40;99.90;;;;;;5077749;28;20861;-63
2023/04/26 08:45:10;;;;;;;4.90;3.67;;;9.40;99.90;;;;;;5078028;28;20481;-63
2023/04/26 08:47:43;;;;;;;5.33;3.00;;;9.40;99.90;;;;;;5076809;28;20463;-63
2023/04/26 08:50:13;;;;;;;5.90;3.80;;;9.40;99.90;;;;;;5077806;28;20462;-64
2023/04/26 08:52:43;;;;;;;7.10;3.87;;;9.30;99.90;;;;;;5077431;28;20465;-63
2023/04/26 08:55:11;;;;;;;8.10;4.17;;;9.30;99.90;;;;;;5064442;28;20561;-64
2023/04/26 08:57:40;;;;;;;11.37;3.60;;;9.40;99.90;;;;;;5071155;28;20457;-63
2023/04/26 09:00:11;;;;;;;6.43;3.33;;;9.40;99.90;;;;;;5077931;28;20472;-64
2023/04/26 09:02:40;;;;;;;6.00;4.20;;;9.70;99.90;;;;;;5067834;28;20474;-63
2023/04/26 09:05:08;;;;;;;8.80;3.67;;;9.90;99.90;;;;;;5076526;28;20485;-64
2023/04/26 09:07:42;;;;;;;7.90;3.93;;;9.90;99.90;;;;;;5076942;28;20556;-63
2023/04/26 09:10:11;;;;;;;5.33;3.37;;;10.50;99.90;;;;;;5077228;28;20473;-64
2023/04/26 09:12:39;;;;;;;8.60;4.40;;;10.90;99.90;;;;;;5077666;28;20461;-64
2023/04/26 09:15:07;;;;;;;7.30;3.77;;;10.90;99.90;;;;;;5078523;28;20568;-64
2023/04/26 09:17:36;;;;;;;11.80;3.20;;;10.60;99.90;;;;;;5078069;28;20523;-64
2023/04/26 09:20:19;;;;;;;6.40;3.70;;;10.50;99.90;;;;;;5078305;28;20465;-64
2023/04/26 09:22:48;;;;;;;9.00;3.73;;;10.10;99.90;;;;;;5078382;28;20547;-64
2023/04/26 09:25:17;;;;;;;5.30;3.40;;;10.50;99.90;;;;;;5078571;28;20528;-64
2023/04/26 09:27:45;;;;;;;5.50;3.37;;;11.30;99.90;;;;;;5078363;28;20497;-64
2023/04/26 09:30:15;;;;;;;4.37;3.40;;;11.00;99.90;;;;;;5078631;28;20468;-64
2023/04/26 09:32:52;;;;;;;5.17;3.90;;;11.50;99.90;;;;;;5078894;28;20436;-63
2023/04/26 09:35:26;;;;;;;5.57;4.00;;;11.50;99.90;;;;;;5078028;28;20499;-63
2023/04/26 09:37:58;;;;;;;8.07;4.23;;;10.80;99.90;;;;;;5078240;28;20981;-63
2023/04/26 09:40:27;;;;;;;4.30;3.90;;;10.60;99.90;;;;;;5075799;28;20457;-64
2023/04/26 09:43:02;;;;;;;5.63;3.73;;;9.80;99.90;;;;;;5075858;28;20459;-63
2023/04/26 09:45:31;;;;;;;8.20;3.77;;;9.40;99.90;;;;;;5074951;28;20492;-63
2023/04/26 09:48:16;;;;;;;8.17;4.20;;;9.60;99.90;;;;;;5075737;28;20497;-63
2023/04/26 09:50:45;;;;;;;5.53;4.60;;;10.10;99.90;;;;;;5075743;28;20495;-63
2023/04/26 09:53:29;;;;;;;5.43;4.00;;;10.30;99.90;;;;;;5074880;28;20465;-63
2023/04/26 09:55:58;;;;;;;6.57;4.63;;;10.40;99.90;;;;;;5074896;28;20869;-62
2023/04/26 09:58:25;;;;;;;6.47;4.40;;;10.60;99.90;;;;;;5076038;28;20564;-58
2023/04/26 10:00:53;;;;;;;9.73;4.63;;;11.40;99.90;;;;;;5074364;28;20764;-63
2023/04/26 10:03:21;;;;;;;10.67;5.00;;;12.30;99.90;;;;;;5074326;28;20475;-63
2023/04/26 10:05:48;;;;;;;4.20;3.80;;;13.20;99.90;;;;;;5073452;28;20489;-64
2023/04/26 10:08:17;;;;;;;5.77;3.57;;;12.60;99.90;;;;;;5075879;28;20461;-63
2023/04/26 10:10:45;;;;;;;5.20;4.40;;;11.30;99.90;;;;;;5073527;28;20484;-63
2023/04/26 10:13:12;;;;;;;4.40;3.90;;;10.70;99.90;;;;;;5073443;28;20457;-62
2023/04/26 10:15:40;;;;;;;5.13;4.57;;;10.80;99.90;;;;;;5073131;28;20462;-62
2023/04/26 10:18:08;;;;;;;10.47;4.67;;;11.00;99.90;;;;;;5074332;28;20507;-63
2023/04/26 10:20:41;;;;;;;6.87;4.73;;;11.30;99.90;;;;;;5074571;28;20843;-63
2023/04/26 10:23:24;;;;;;;6.60;4.90;;;11.00;99.90;;;;;;5074793;28;20462;-62
2023/04/26 10:25:53;;;;;;;5.23;3.80;;;10.80;99.90;;;;;;5075382;28;20511;-62
2023/04/26 10:28:54;;;;;;;6.33;4.40;;;12.30;99.90;;;;;;5076861;28;20583;-62
2023/04/26 10:31:21;;;;;;;11.83;5.53;;;12.50;99.90;;;;;;5077257;28;20471;-62
2023/04/26 10:34:20;;;;;;;7.10;5.00;;;12.40;99.90;;;;;;5074680;28;20934;-62
2023/04/26 10:37:10;;;;;;;5.10;4.60;;;11.90;99.90;;;;;;5075844;28;20453;-62
2023/04/26 10:39:37;;;;;;;5.60;5.00;;;11.60;99.90;;;;;;5075341;28;20473;-62
2023/04/26 10:42:26;;;;;;;10.20;6.20;;;11.00;99.90;;;;;;5076003;28;20469;-62
2023/04/26 10:44:54;;;;;;;9.47;6.63;;;10.40;99.90;;;;;;5076208;28;20465;-62
2023/04/26 10:47:27;;;;;;;6.63;5.10;;;10.40;99.90;;;;;;5074358;28;20580;-62
2023/04/26 10:50:04;;;;;;;5.77;5.07;;;10.50;99.90;;;;;;5075646;28;20461;-62
2023/04/26 10:52:31;;;;;;;7.53;5.30;;;10.50;99.90;;;;;;5077071;28;20469;-62
2023/04/26 10:55:01;;;;;;;10.10;5.00;;;10.50;99.90;;;;;;5075691;28;20875;-62
2023/04/26 10:57:50;;;;;;;7.17;5.40;;;10.80;99.90;;;;;;5076365;28;20891;-62
2023/04/26 11:00:26;;;;;;;9.37;5.30;;;10.80;99.90;;;;;;5075440;28;20466;-62
2023/04/26 11:03:16;;;;;;;6.80;4.63;;;10.50;99.90;;;;;;5075023;28;20547;-62
2023/04/26 11:05:53;;;;;;;6.57;5.27;;;10.20;99.90;;;;;;5075058;28;20989;-61
2023/04/26 11:08:24;;;;;;;9.43;5.20;;;10.40;99.90;;;;;;5074460;28;20457;-62
2023/04/26 11:10:57;;;;;;;7.53;5.37;;;10.50;99.90;;;;;;5073158;28;20469;-62
2023/04/26 11:13:26;;;;;;;7.90;6.57;;;10.20;99.90;;;;;;5074245;28;20540;-62
2023/04/26 11:15:54;;;;;;;8.50;6.70;;;9.90;99.90;;;;;;5074195;28;20457;-59
2023/04/26 11:18:21;;;;;;;13.27;6.57;;;9.70;99.90;;;;;;5074178;28;20560;-62
2023/04/26 11:20:49;;;;;;;11.40;7.00;;;9.90;99.90;;;;;;5074487;28;20837;-62
2023/04/26 11:23:18;;;;;;;7.13;6.33;;;10.30;99.90;;;;;;5067759;28;20497;-62
2023/04/26 11:25:46;;;;;;;8.17;6.77;;;10.10;99.90;;;;;;5073954;28;20942;-62
2023/04/26 11:28:13;;;;;;;8.80;6.70;;;10.30;99.90;;;;;;5072500;28;20820;-61
2023/04/26 11:30:42;;;;;;;8.67;6.90;;;10.80;99.90;;;;;;5055340;28;20561;-61
2023/04/26 11:33:17;;;;;;;7.33;5.77;;;11.20;99.90;;;;;;5055937;28;20565;-62
2023/04/26 11:35:45;;;;;;;6.73;5.93;;;10.90;99.90;;;;;;5056123;28;20458;-62
2023/04/26 11:38:13;;;;;;;10.40;5.40;;;11.60;99.90;;;;;;5056059;28;20463;-62
2023/04/26 11:40:41;;;;;;;6.97;5.67;;;11.70;99.90;;;;;;5056558;28;20893;-61
2023/04/26 11:43:09;;;;;;;10.87;4.97;;;11.80;99.90;;;;;;5063593;28;20453;-61
2023/04/26 11:45:40;;;;;;;8.67;6.03;;;12.30;99.90;;;;;;5074844;28;20493;-60
2023/04/26 11:48:12;;;;;;;7.20;5.43;;;13.00;99.90;;;;;;5078244;28;20469;-60
2023/04/26 11:50:41;;;;;;;5.00;4.50;;;13.70;99.90;;;;;;5079786;28;20465;-61
2023/04/26 11:53:09;;;;;;;7.17;4.80;;;13.70;99.90;;;;;;5080198;28;20886;-61
2023/04/26 11:55:36;;;;;;;7.07;5.20;;;14.00;99.90;;;;;;5079943;28;20832;-61
2023/04/26 11:58:11;;;;;;;6.47;5.00;;;14.10;99.90;;;;;;5079998;28;20496;-61
2023/04/26 12:00:53;;;;;;;7.77;4.77;;;13.70;99.90;;;;;;5080279;28;20803;-61
2023/04/26 12:03:22;;;;;;;5.90;4.30;;;13.70;99.90;;;;;;5078730;28;20472;-60
2023/04/26 12:05:55;;;;;;;5.23;4.23;;;13.60;99.90;;;;;;5077888;28;20465;-61
2023/04/26 12:08:24;;;;;;;5.50;5.00;;;13.30;99.90;;;;;;5077486;28;20480;-61
2023/04/26 12:10:53;;;;;;;6.87;5.17;;;12.80;99.90;;;;;;5077169;28;20453;-59
2023/04/26 12:13:20;;;;;;;8.37;5.07;;;12.90;99.90;;;;;;5077723;28;20447;-60
2023/04/26 12:15:50;;;;;;;6.47;5.47;;;12.10;99.90;;;;;;5075440;28;20891;-60
2023/04/26 12:18:17;;;;;;;7.97;5.80;;;11.90;99.90;;;;;;5077310;28;20967;-60
2023/04/26 12:20:46;;;;;;;6.37;5.67;;;12.20;99.90;;;;;;5077502;28;20457;-60
2023/04/26 12:23:15;;;;;;;5.20;4.70;;;12.00;99.90;;;;;;5078415;28;20646;-59
2023/04/26 12:25:53;;;;;;;6.23;5.30;;;11.10;99.90;;;;;;5077585;28;20436;-59
2023/04/26 12:28:21;;;;;;;6.37;5.63;;;11.20;99.90;;;;;;5077026;28;20554;-61
2023/04/26 12:30:49;;;;;;;6.47;5.67;;;10.30;99.90;;;;;;5078351;28;20458;-62
2023/04/26 12:33:21;;;;;;;6.57;5.87;;;10.60;99.90;;;;;;5077792;28;20890;-62
2023/04/26 12:35:50;;;;;;;7.77;5.93;;;10.40;99.90;;;;;;5077992;28;20493;-62
2023/04/26 12:38:18;;;;;;;12.07;7.50;;;10.30;99.90;;;;;;5077941;28;20488;-62
2023/04/26 12:40:46;;;;;;;6.67;6.07;;;10.60;99.90;;;;;;5078084;28;20453;-62
2023/04/26 12:43:14;;;;;;;8.90;7.13;;;11.20;99.90;;;;;;5078128;28;20518;-61
2023/04/26 12:45:41;;;;;;;7.63;6.80;;;11.70;99.90;;;;;;5078032;28;20511;-62
2023/04/26 12:48:09;;;;;;;8.60;6.80;;;12.00;99.90;;;;;;5075148;28;20702;-62
2023/04/26 12:50:36;;;;;;;8.50;6.50;;;12.40;99.90;;;;;;5078101;28;20462;-62
2023/04/26 12:53:04;;;;;;;7.33;6.00;;;12.60;99.90;;;;;;5078060;28;20457;-61
2023/04/26 12:55:32;;;;;;;6.17;5.60;;;12.60;99.90;;;;;;5077470;28;20484;-61
2023/04/26 12:57:59;;;;;;;6.53;5.80;;;11.80;99.90;;;;;;5076275;28;20452;-61
2023/04/26 13:00:27;;;;;;;7.13;4.80;;;11.10;99.90;;;;;;5077435;28;20484;-61